Time;durP1;ratioP1;P1;durP2;ratioP2;P2;SDS_P1;SDS_P2;PMS_P1;PMS_P2;Temp;Humidity;BMP_temperature;BMP_pressure;BME280_temperature;BME280_humidity;BME280_pressure;Samples;Min_cycle;Max_cycle;Signal;HPM_P1;HPM_P2
2021/05/31 00:00:17;;;;;;;15.60;8.60;;;;;;;11.51;75.40;102313.09;1027961;28;20561;-77
2021/05/31 00:00:48;;;;;;;12.80;9.65;;;;;;;11.55;75.07;102312.38;1027669;28;20055;-77
2021/05/31 00:01:20;;;;;;;12.65;9.13;;;;;;;11.54;75.52;102318.38;1028476;28;20109;-77
2021/05/31 00:01:53;;;;;;;10.38;8.77;;;;;;;11.48;75.39;102313.88;1032184;28;20525;-77
2021/05/31 00:02:25;;;;;;;13.43;9.02;;;;;;;11.44;75.82;102312.00;1032453;28;20411;-76
2021/05/31 00:02:56;;;;;;;9.63;8.23;;;;;;;11.48;75.44;102307.81;1032407;28;20392;-77
2021/05/31 00:03:26;;;;;;;10.15;8.52;;;;;;;11.48;75.44;102311.28;1032081;28;20511;-77
2021/05/31 00:03:58;;;;;;;10.57;9.00;;;;;;;11.57;75.20;102310.69;1028058;28;20517;-77
2021/05/31 00:04:32;;;;;;;12.20;9.57;;;;;;;11.56;75.48;102317.59;1024026;29;20447;-77
2021/05/31 00:05:04;;;;;;;17.88;9.77;;;;;;;11.54;75.48;102308.91;1024877;28;20404;-77
2021/05/31 00:05:35;;;;;;;10.32;9.02;;;;;;;11.53;75.33;102307.16;1028843;28;20050;-77
2021/05/31 00:06:07;;;;;;;13.10;9.25;;;;;;;11.51;75.44;102305.31;1028871;28;20057;-77
2021/05/31 00:06:49;;;;;;;12.32;9.57;;;;;;;11.44;76.02;102306.81;1028134;28;20495;-77
2021/05/31 00:07:21;;;;;;;12.70;9.40;;;;;;;11.41;75.81;102317.97;1024052;29;20052;-77
2021/05/31 00:07:54;;;;;;;14.30;8.43;;;;;;;11.46;75.45;102310.38;1023931;29;20051;-77
2021/05/31 00:08:25;;;;;;;9.55;8.50;;;;;;;11.43;76.03;102310.25;1022163;29;20052;-77
2021/05/31 00:08:57;;;;;;;14.85;9.40;;;;;;;11.37;76.08;102310.03;1024079;29;20051;-77
2021/05/31 00:09:30;;;;;;;14.45;10.27;;;;;;;11.39;76.09;102311.84;1026102;28;20047;-77
2021/05/31 00:10:02;;;;;;;11.63;8.68;;;;;;;11.41;75.72;102307.59;1028584;28;20047;-77
2021/05/31 00:10:34;;;;;;;13.00;9.07;;;;;;;11.44;75.85;102309.41;1026788;28;20054;-76
2021/05/31 00:11:05;;;;;;;14.88;10.35;;;;;;;11.45;75.86;102307.69;1024080;29;20419;-76
2021/05/31 00:11:37;;;;;;;13.40;10.18;;;;;;;11.40;76.27;102307.53;1025808;28;20066;-76
2021/05/31 00:12:15;;;;;;;11.30;8.73;;;;;;;11.42;75.67;102311.06;1031952;28;20054;-77
2021/05/31 00:12:46;;;;;;;14.18;9.73;;;;;;;11.46;75.94;102301.69;1032399;28;20127;-77
2021/05/31 00:13:19;;;;;;;10.32;9.25;;;;;;;11.50;75.84;102311.31;1032099;28;20046;-77
2021/05/31 00:13:50;;;;;;;13.93;8.98;;;;;;;11.48;75.56;102305.22;1031891;28;20058;-77
2021/05/31 00:14:22;;;;;;;11.10;8.43;;;;;;;11.47;75.70;102306.94;1029969;28;20058;-77
2021/05/31 00:14:53;;;;;;;15.70;10.15;;;;;;;11.41;76.07;102309.31;1024689;28;20055;-77
2021/05/31 00:15:28;;;;;;;12.27;9.88;;;;;;;11.34;76.50;102307.31;1032127;28;20406;-77
2021/05/31 00:16:00;;;;;;;13.45;10.35;;;;;;;11.33;76.43;102311.63;1029917;28;20046;-77
2021/05/31 00:16:32;;;;;;;11.60;9.98;;;;;;;11.32;76.61;102302.09;1027124;28;20047;-77
2021/05/31 00:17:04;;;;;;;13.05;9.68;;;;;;;11.37;76.22;102304.84;1024905;28;20070;-77
2021/05/31 00:17:36;;;;;;;15.02;10.43;;;;;;;11.35;76.21;102309.09;1028032;28;20634;-77
2021/05/31 00:18:07;;;;;;;17.15;9.45;;;;;;;11.36;76.12;102306.56;1027882;28;20065;-77
2021/05/31 00:18:39;;;;;;;14.50;10.68;;;;;;;11.34;76.61;102305.59;1028066;28;20054;-76
2021/05/31 00:19:12;;;;;;;13.52;9.55;;;;;;;11.35;76.35;102303.91;1027398;28;20050;-77
2021/05/31 00:19:45;;;;;;;11.70;9.93;;;;;;;11.35;76.48;102307.41;1023996;29;20389;-76
2021/05/31 00:20:18;;;;;;;12.95;9.57;;;;;;;11.38;76.19;102310.06;1023918;29;20055;-76
2021/05/31 00:20:50;;;;;;;16.13;9.52;;;;;;;11.38;76.20;102306.59;1021371;29;20055;-77
2021/05/31 00:21:21;;;;;;;12.43;9.48;;;;;;;11.38;76.46;102302.28;1024077;29;20051;-76
2021/05/31 00:21:53;;;;;;;14.38;10.60;;;;;;;11.37;76.52;102310.03;1022594;28;20060;-77
2021/05/31 00:22:25;;;;;;;12.52;10.00;;;;;;;11.38;76.42;102306.59;1027891;28;20054;-77
2021/05/31 00:22:57;;;;;;;13.50;9.85;;;;;;;11.37;76.25;102308.31;1023952;29;20043;-77
2021/05/31 00:23:28;;;;;;;13.73;9.90;;;;;;;11.42;76.18;102311.06;1024531;28;20063;-77
2021/05/31 00:24:00;;;;;;;14.30;10.10;;;;;;;11.35;76.56;102306.50;1023959;29;20056;-77
2021/05/31 00:24:32;;;;;;;12.15;9.55;;;;;;;11.31;77.22;102312.41;1024308;28;20424;-77
2021/05/31 00:25:05;;;;;;;19.20;10.32;;;;;;;11.35;76.56;102309.09;1024579;28;20403;-77
2021/05/31 00:25:37;;;;;;;13.50;10.23;;;;;;;11.32;76.86;102309.84;1028564;28;20043;-77
2021/05/31 00:26:10;;;;;;;12.32;9.95;;;;;;;11.35;77.21;102314.28;1031918;28;20054;-77
2021/05/31 00:26:42;;;;;;;12.18;9.40;;;;;;;11.34;77.01;102313.38;1031960;28;20549;-76
2021/05/31 00:27:15;;;;;;;11.80;10.38;;;;;;;11.33;76.94;102309.03;1032266;28;20046;-77
2021/05/31 00:27:46;;;;;;;15.63;10.20;;;;;;;11.34;76.59;102307.31;1032049;28;20054;-76
2021/05/31 00:28:18;;;;;;;15.88;10.15;;;;;;;11.37;76.82;102310.91;1031999;28;20050;-76
2021/05/31 00:28:50;;;;;;;12.27;9.65;;;;;;;11.32;77.17;102315.03;1031846;28;20128;-77
2021/05/31 00:29:25;;;;;;;14.68;10.18;;;;;;;11.32;76.92;102309.84;1032150;28;20108;-76
2021/05/31 00:29:57;;;;;;;12.35;9.45;;;;;;;11.25;77.08;102305.28;1032068;28;20054;-76
2021/05/31 00:30:28;;;;;;;17.73;10.40;;;;;;;11.26;77.25;102309.66;1027621;28;20047;-77
2021/05/31 00:31:00;;;;;;;13.15;10.38;;;;;;;11.26;77.12;102303.59;1025005;28;20119;-76
2021/05/31 00:31:32;;;;;;;15.18;10.57;;;;;;;11.29;77.42;102307.19;1027878;28;20050;-77
2021/05/31 00:32:04;;;;;;;12.60;9.75;;;;;;;11.24;77.42;102306.13;1028417;28;20046;-77
2021/05/31 00:32:36;;;;;;;13.80;10.82;;;;;;;11.24;77.18;102300.06;1031824;28;20133;-77
2021/05/31 00:33:07;;;;;;;14.90;9.77;;;;;;;11.27;76.86;102313.13;1031965;28;20057;-76
2021/05/31 00:33:40;;;;;;;13.50;9.48;;;;;;;11.28;76.85;102305.38;1031832;28;20054;-77
2021/05/31 00:34:12;;;;;;;12.85;10.65;;;;;;;11.25;77.29;102305.28;1032072;28;20410;-76
2021/05/31 00:34:43;;;;;;;14.82;10.15;;;;;;;11.27;76.96;102306.22;1031933;28;20054;-76
2021/05/31 00:35:15;;;;;;;13.95;10.23;;;;;;;11.24;77.12;102300.06;1027660;28;20057;-76
2021/05/31 00:35:46;;;;;;;15.18;11.20;;;;;;;11.20;77.48;102303.38;1024067;29;20070;-76
2021/05/31 00:36:18;;;;;;;13.93;9.88;;;;;;;11.14;77.83;102312.69;1024463;28;20058;-76
2021/05/31 00:36:50;;;;;;;15.23;10.77;;;;;;;11.15;77.80;102305.78;1027566;28;20521;-77
2021/05/31 00:37:21;;;;;;;12.93;10.10;;;;;;;11.14;77.44;102304.91;1032083;28;20062;-76
2021/05/31 00:37:55;;;;;;;12.43;10.13;;;;;;;11.18;77.53;102313.69;1031981;28;20047;-76
2021/05/31 00:38:27;;;;;;;10.85;9.35;;;;;;;11.19;77.59;102310.25;1031930;28;20057;-76
2021/05/31 00:38:58;;;;;;;11.98;10.10;;;;;;;11.12;78.07;102305.69;1031705;28;20449;-76
2021/05/31 00:39:30;;;;;;;12.63;10.32;;;;;;;11.11;78.33;102307.38;1031889;28;20430;-76
2021/05/31 00:40:03;;;;;;;13.57;10.23;;;;;;;11.15;77.87;102305.78;1028020;28;20050;-76
2021/05/31 00:40:35;;;;;;;13.77;9.90;;;;;;;11.12;78.32;102301.41;1028229;28;20059;-76
2021/05/31 00:41:07;;;;;;;14.02;10.30;;;;;;;11.12;78.15;102308.28;1026704;28;20542;-76
2021/05/31 00:41:43;;;;;;;15.65;11.00;;;;;;;11.02;78.78;102307.06;1028537;28;20042;-76
2021/05/31 00:42:15;;;;;;;15.23;10.38;;;;;;;11.06;78.20;102306.34;1027768;28;20058;-76
2021/05/31 00:42:46;;;;;;;14.90;10.73;;;;;;;11.05;78.31;102309.75;1029159;28;20050;-76
2021/05/31 00:43:18;;;;;;;13.10;10.10;;;;;;;11.05;77.87;102303.69;1031877;28;20046;-77
2021/05/31 00:43:50;;;;;;;14.00;9.93;;;;;;;11.10;78.40;102303.03;1031921;28;20050;-76
2021/05/31 00:44:23;;;;;;;14.18;10.43;;;;;;;11.09;78.24;102310.75;1032336;28;20050;-76
2021/05/31 00:44:54;;;;;;;14.50;10.90;;;;;;;11.04;78.27;102305.41;1032297;28;20050;-76
2021/05/31 00:45:28;;;;;;;15.63;11.48;;;;;;;11.02;79.00;102304.47;1032116;28;20046;-76
2021/05/31 00:46:08;;;;;;;13.20;10.50;;;;;;;11.04;78.66;102304.50;1032306;28;20398;-76
2021/05/31 00:46:40;;;;;;;12.75;10.23;;;;;;;11.02;78.66;102307.06;1031991;28;20100;-77
2021/05/31 00:47:12;;;;;;;13.80;10.70;;;;;;;11.02;78.68;102301.88;1031935;28;20187;-76
2021/05/31 00:47:43;;;;;;;20.67;10.20;;;;;;;11.00;79.03;102308.69;1028007;28;20082;-76
2021/05/31 00:48:16;;;;;;;17.60;10.73;;;;;;;11.02;78.64;102304.47;1024561;28;20058;-77
2021/05/31 00:48:47;;;;;;;14.23;10.05;;;;;;;11.08;78.64;102304.69;1023946;29;20054;-76
2021/05/31 00:49:21;;;;;;;16.05;10.05;;;;;;;11.08;78.43;102306.41;1024555;28;20058;-76
2021/05/31 00:49:54;;;;;;;18.33;11.63;;;;;;;11.04;78.35;102310.56;1028545;28;20054;-76
2021/05/31 00:50:26;;;;;;;11.70;10.50;;;;;;;11.05;78.13;102307.16;1028788;28;20487;-76
2021/05/31 00:50:59;;;;;;;12.95;10.00;;;;;;;10.99;78.56;102306.94;1031557;28;20065;-76
2021/05/31 00:51:31;;;;;;;13.68;9.70;;;;;;;10.97;78.67;102305.13;1027763;28;20121;-76
2021/05/31 00:52:05;;;;;;;12.07;10.88;;;;;;;11.01;78.41;102309.59;1027810;28;20057;-76
2021/05/31 00:52:36;;;;;;;12.85;9.93;;;;;;;11.03;78.57;102306.22;1028821;28;20410;-76
2021/05/31 00:53:08;;;;;;;19.08;11.38;;;;;;;11.05;78.16;102314.03;1031902;28;20051;-77
2021/05/31 00:53:40;;;;;;;15.30;10.98;;;;;;;11.05;78.63;102301.97;1031841;28;20050;-76
2021/05/31 00:54:12;;;;;;;15.60;10.75;;;;;;;11.05;78.33;102301.97;1031992;28;20058;-77
2021/05/31 00:54:43;;;;;;;14.77;11.68;;;;;;;11.02;79.18;102306.19;1031935;28;20061;-77
2021/05/31 00:55:15;;;;;;;12.05;9.95;;;;;;;11.03;78.57;102306.22;1026491;28;20061;-76
2021/05/31 00:55:47;;;;;;;16.33;10.43;;;;;;;11.00;78.84;102298.34;1027756;28;20062;-76
2021/05/31 00:56:18;;;;;;;13.77;10.75;;;;;;;11.01;78.50;102304.41;1028380;28;20051;-76
2021/05/31 00:56:51;;;;;;;15.63;11.52;;;;;;;10.99;78.43;102301.75;1031789;28;20443;-76
2021/05/31 00:57:22;;;;;;;13.95;10.45;;;;;;;10.95;78.34;102299.91;1031855;28;20506;-76
2021/05/31 00:57:55;;;;;;;18.95;11.57;;;;;;;10.95;79.05;102299.91;1027952;28;20407;-76
2021/05/31 00:58:28;;;;;;;12.95;10.77;;;;;;;10.96;78.71;102299.06;1028671;28;20399;-76
2021/05/31 00:58:59;;;;;;;14.88;9.80;;;;;;;10.94;79.15;102300.69;1031979;28;20050;-77
2021/05/31 00:59:31;;;;;;;15.00;10.35;;;;;;;10.92;78.71;102302.38;1031828;28;20549;-76
2021/05/31 01:00:09;;;;;;;15.20;10.55;;;;;;;10.96;78.82;102298.19;1031888;28;20042;-77
2021/05/31 01:00:42;;;;;;;13.70;10.52;;;;;;;10.86;78.63;102295.25;1032285;28;20546;-76
2021/05/31 01:01:17;;;;;;;17.35;11.43;;;;;;;10.89;78.84;102294.47;1031658;28;20410;-76
2021/05/31 01:01:49;;;;;;;11.57;10.23;;;;;;;10.88;78.89;102300.47;1031804;28;20050;-76
2021/05/31 01:02:21;;;;;;;16.13;11.48;;;;;;;10.84;79.60;102296.03;1031717;28;20056;-76
2021/05/31 01:02:53;;;;;;;15.32;11.13;;;;;;;10.80;79.70;102302.78;1031992;28;20050;-77
2021/05/31 01:03:25;;;;;;;16.20;10.88;;;;;;;10.77;79.75;102297.47;1031840;28;20061;-76
2021/05/31 01:03:56;;;;;;;12.95;10.45;;;;;;;10.79;79.29;102298.44;1031861;28;20047;-76
2021/05/31 01:04:28;;;;;;;15.52;10.65;;;;;;;10.81;79.27;102299.38;1031836;28;20050;-76
2021/05/31 01:05:00;;;;;;;13.07;11.60;;;;;;;10.77;79.63;102297.47;1028398;28;20051;-74
2021/05/31 01:05:31;;;;;;;13.45;10.50;;;;;;;10.76;79.89;102294.84;1031944;28;20506;-76
2021/05/31 01:06:05;;;;;;;18.33;10.30;;;;;;;10.76;79.89;102300.03;1031641;28;20058;-77
2021/05/31 01:06:40;;;;;;;13.32;11.10;;;;;;;10.73;79.80;102302.50;1031806;28;20145;-76
2021/05/31 01:07:29;;;;;;;14.40;9.98;;;;;;;10.76;79.67;102305.19;1031867;28;20049;-76
2021/05/31 01:08:07;;;;;;;14.00;9.88;;;;;;;10.75;79.73;102298.25;1031896;28;20505;-76
2021/05/31 01:08:48;;;;;;;14.77;11.38;;;;;;;10.70;80.13;102299.78;1031989;28;20046;-76
2021/05/31 01:09:32;;;;;;;13.98;9.75;;;;;;;10.65;80.08;102297.03;1031851;28;20053;-76
2021/05/31 01:10:16;;;;;;;15.85;9.73;;;;;;;10.69;79.42;102306.69;1032263;28;20053;-76
2021/05/31 01:10:58;;;;;;;14.25;9.95;;;;;;;10.64;79.85;102303.03;1031968;28;20069;-76
2021/05/31 01:11:39;;;;;;;16.60;10.23;;;;;;;10.69;79.80;102305.81;1024004;28;20418;-76
2021/05/31 01:12:39;;;;;;;11.88;10.00;;;;;;;10.54;80.36;102299.19;1023940;29;20051;-76
2021/05/31 01:13:19;;;;;;;14.73;11.27;;;;;;;10.62;80.18;102296.94;1025179;28;20402;-76
2021/05/31 01:14:06;;;;;;;15.68;10.43;;;;;;;10.61;80.27;102308.09;1025097;28;20054;-76
2021/05/31 01:14:50;;;;;;;13.63;10.38;;;;;;;10.58;80.45;102300.22;1023968;28;20062;-76
2021/05/31 01:15:34;;;;;;;15.88;10.43;;;;;;;10.57;80.82;102301.03;1031393;28;20058;-76
2021/05/31 01:16:18;;;;;;;12.45;9.60;;;;;;;10.59;79.69;102301.97;1035772;28;20050;-76
2021/05/31 01:17:01;;;;;;;18.75;10.80;;;;;;;10.57;79.74;102296.75;1031753;28;20073;-76
2021/05/31 01:18:00;;;;;;;15.02;11.15;;;;;;;10.54;80.54;102300.91;1031906;28;20050;-76
2021/05/31 01:18:38;;;;;;;17.73;11.65;;;;;;;10.55;80.79;102292.31;1031908;28;20474;-76
2021/05/31 01:19:20;;;;;;;19.80;10.50;;;;;;;10.51;80.54;102296.50;1031937;28;20054;-76
2021/05/31 01:20:08;;;;;;;16.40;10.43;;;;;;;10.49;80.75;102305.03;1031966;28;20146;-76
2021/05/31 01:20:56;;;;;;;12.75;10.93;;;;;;;10.58;80.38;102297.63;1031952;28;20109;-77
2021/05/31 01:21:42;;;;;;;14.48;10.38;;;;;;;10.57;80.24;102301.91;1031792;28;20054;-76
2021/05/31 01:22:15;;;;;;;13.10;10.93;;;;;;;10.51;80.59;102296.50;1031571;28;20050;-76
2021/05/31 01:22:47;;;;;;;13.55;10.38;;;;;;;10.50;80.63;102301.63;1027836;28;20058;-76
2021/05/31 01:23:20;;;;;;;16.98;11.43;;;;;;;10.52;79.87;102298.28;1027600;28;20545;-76
2021/05/31 01:24:23;;;;;;;13.27;10.13;;;;;;;10.48;80.71;102292.91;1028817;28;20051;-76
2021/05/31 01:25:16;;;;;;;12.90;11.20;;;;;;;10.35;81.04;102302.78;1031958;28;20050;-76
2021/05/31 01:26:07;;;;;;;12.57;9.60;;;;;;;10.40;80.63;102297.81;1031873;28;20050;-76
2021/05/31 01:26:49;;;;;;;14.98;10.05;;;;;;;10.37;81.22;102296.78;1031801;28;20411;-76
2021/05/31 01:27:21;;;;;;;12.07;10.23;;;;;;;10.31;81.16;102302.59;1031798;28;20061;-76
2021/05/31 01:28:20;;;;;;;15.20;11.52;;;;;;;10.35;80.87;102304.50;1031868;28;20185;-76
2021/05/31 01:29:08;;;;;;;14.88;11.60;;;;;;;10.32;81.58;102297.50;1031644;28;20042;-76
2021/05/31 01:29:46;;;;;;;13.90;11.50;;;;;;;10.31;81.71;102297.44;1031934;28;20050;-76
2021/05/31 01:30:22;;;;;;;12.98;10.75;;;;;;;10.29;81.08;102299.97;1031914;28;20061;-76
2021/05/31 01:30:55;;;;;;;15.25;10.70;;;;;;;10.34;80.76;102301.03;1027673;28;20057;-76
2021/05/31 01:32:00;;;;;;;16.08;11.38;;;;;;;10.30;80.94;102300.84;1027661;28;20058;-76
2021/05/31 01:32:45;;;;;;;18.92;10.95;;;;;;;10.29;80.92;102299.09;1026347;28;20110;-76
2021/05/31 01:33:22;;;;;;;14.60;10.50;;;;;;;10.34;81.15;102302.75;1032083;28;20054;-76
2021/05/31 01:33:55;;;;;;;16.00;11.23;;;;;;;10.32;80.93;102301.78;1029546;28;20050;-76
2021/05/31 01:34:32;;;;;;;13.20;10.15;;;;;;;10.30;80.90;102301.72;1031800;28;20050;-77
2021/05/31 01:35:09;;;;;;;18.35;11.70;;;;;;;10.27;81.13;102303.31;1031806;28;20062;-76
2021/05/31 01:35:42;;;;;;;13.55;12.15;;;;;;;10.23;81.39;102302.31;1031761;28;20047;-76
2021/05/31 01:36:13;;;;;;;14.32;10.48;;;;;;;10.19;81.22;102302.09;1031775;28;20054;-77
2021/05/31 01:36:48;;;;;;;21.52;11.93;;;;;;;10.13;82.13;102297.56;1031775;28;20057;-76
2021/05/31 01:37:24;;;;;;;13.95;10.90;;;;;;;10.13;82.37;102297.56;1028652;28;20058;-76
2021/05/31 01:37:58;;;;;;;14.82;10.95;;;;;;;10.17;81.65;102291.69;1027648;28;20541;-76
2021/05/31 01:38:34;;;;;;;17.00;12.20;;;;;;;10.13;81.90;102297.56;1027781;28;20059;-76
2021/05/31 01:39:06;;;;;;;15.52;11.75;;;;;;;10.12;81.96;102300.97;1025672;28;20062;-76
2021/05/31 01:39:40;;;;;;;17.02;11.73;;;;;;;10.15;81.81;102301.06;1029323;28;20051;-76
2021/05/31 01:40:14;;;;;;;15.10;11.75;;;;;;;10.12;81.74;102297.50;1032082;28;20050;-76
2021/05/31 01:40:49;;;;;;;15.32;10.30;;;;;;;10.06;81.95;102305.91;1031882;28;20054;-76
2021/05/31 01:41:22;;;;;;;11.68;10.25;;;;;;;10.04;81.89;102302.34;1027660;28;20055;-76
2021/05/31 01:41:55;;;;;;;10.80;9.63;;;;;;;10.02;82.36;102294.53;1027689;28;20051;-76
2021/05/31 01:42:27;;;;;;;15.07;10.75;;;;;;;10.04;82.12;102298.09;1024843;28;20051;-76
2021/05/31 01:43:01;;;;;;;17.45;10.77;;;;;;;10.01;81.93;102305.69;1024651;28;20062;-76
2021/05/31 01:43:33;;;;;;;18.63;11.52;;;;;;;9.96;81.92;102302.03;1024424;28;20047;-76
2021/05/31 01:44:05;;;;;;;12.40;11.10;;;;;;;9.96;82.14;102302.03;1028655;28;20054;-76
2021/05/31 01:44:38;;;;;;;14.60;10.50;;;;;;;9.92;82.06;102301.84;1027859;28;20078;-76
2021/05/31 01:45:11;;;;;;;15.45;10.98;;;;;;;9.90;82.33;102301.78;1027728;28;20042;-76
2021/05/31 01:45:42;;;;;;;12.70;10.65;;;;;;;9.90;82.32;102301.78;1023882;29;20145;-76
2021/05/31 01:46:14;;;;;;;13.85;11.15;;;;;;;9.85;82.58;102305.00;1024583;28;20191;-76
2021/05/31 01:46:47;;;;;;;14.98;10.88;;;;;;;9.87;81.95;102296.50;1027707;28;20050;-76
2021/05/31 01:47:19;;;;;;;14.90;10.30;;;;;;;9.91;82.39;102297.50;1028404;28;20062;-76
2021/05/31 01:47:51;;;;;;;11.07;9.80;;;;;;;9.91;82.07;102307.84;1027726;28;20054;-76
2021/05/31 01:48:23;;;;;;;12.52;9.23;;;;;;;9.94;81.55;102306.28;1024460;28;20500;-76
2021/05/31 01:48:55;;;;;;;13.15;10.05;;;;;;;9.89;82.20;102299.16;1023840;29;20066;-76
2021/05/31 01:49:28;;;;;;;20.00;10.60;;;;;;;9.86;82.28;102299.88;1025304;28;20055;-76
2021/05/31 01:50:01;;;;;;;14.85;11.05;;;;;;;9.82;82.50;102300.59;1029310;28;20097;-76
2021/05/31 01:50:33;;;;;;;15.82;11.13;;;;;;;9.79;82.65;102292.72;1032456;28;20057;-76
2021/05/31 01:51:05;;;;;;;13.48;10.50;;;;;;;9.78;82.77;102294.41;1032760;28;20053;-76
2021/05/31 01:51:40;;;;;;;15.23;10.55;;;;;;;9.79;82.20;102295.31;1032466;28;20054;-76
2021/05/31 01:52:13;;;;;;;11.85;10.20;;;;;;;9.79;82.31;102293.59;1028679;28;20061;-76
2021/05/31 01:52:46;;;;;;;15.45;10.63;;;;;;;9.78;82.39;102302.16;1025695;28;20506;-76
2021/05/31 01:53:19;;;;;;;13.13;10.35;;;;;;;9.80;82.47;102292.75;1021274;29;20074;-76
2021/05/31 01:53:51;;;;;;;13.75;9.95;;;;;;;9.75;82.52;102296.84;1021680;29;20074;-75
2021/05/31 01:54:23;;;;;;;14.30;10.43;;;;;;;9.77;82.49;102290.06;1024589;29;20051;-76
2021/05/31 01:54:57;;;;;;;15.57;12.00;;;;;;;9.76;82.81;102293.47;1024583;29;20074;-76
2021/05/31 01:55:29;;;;;;;13.60;10.80;;;;;;;9.75;82.59;102294.28;1024471;29;20058;-76
2021/05/31 01:56:01;;;;;;;14.52;10.55;;;;;;;9.77;82.50;102282.31;1024469;29;20066;-76
2021/05/31 01:56:33;;;;;;;18.00;10.80;;;;;;;9.79;83.09;102290.13;1025622;28;20055;-76
2021/05/31 01:57:07;;;;;;;11.43;9.68;;;;;;;9.75;83.16;102288.22;1028869;28;20046;-76
2021/05/31 01:57:39;;;;;;;15.77;10.82;;;;;;;9.74;82.78;102287.34;1031654;28;20189;-76
2021/05/31 01:58:12;;;;;;;14.68;11.15;;;;;;;9.70;82.93;102288.06;1029581;28;20055;-76
2021/05/31 01:58:44;;;;;;;15.05;11.05;;;;;;;9.67;83.72;102285.34;1033429;28;20057;-75
2021/05/31 01:59:19;;;;;;;24.08;13.38;;;;;;;9.72;84.16;102291.59;1032577;28;20050;-76
2021/05/31 01:59:51;;;;;;;16.52;12.63;;;;;;;9.76;83.58;102288.31;1032389;28;20065;-76
2021/05/31 02:00:23;;;;;;;16.30;11.82;;;;;;;9.77;83.93;102290.06;1028620;28;20054;-76
2021/05/31 02:00:55;;;;;;;16.05;12.52;;;;;;;9.81;83.60;102289.38;1028484;28;20066;-76
2021/05/31 02:01:27;;;;;;;15.23;12.27;;;;;;;9.74;83.70;102291.63;1029168;28;20099;-76
2021/05/31 02:01:58;;;;;;;17.38;11.90;;;;;;;9.77;83.52;102289.19;1028489;28;20062;-75
2021/05/31 02:02:30;;;;;;;15.27;11.57;;;;;;;9.80;83.25;102287.59;1028645;28;20055;-76
2021/05/31 02:03:03;;;;;;;14.90;11.48;;;;;;;9.78;83.35;102288.38;1027053;28;20098;-76
2021/05/31 02:03:39;;;;;;;14.23;11.88;;;;;;;9.75;84.06;102288.22;1032417;28;20054;-76
2021/05/31 02:04:10;;;;;;;13.98;11.68;;;;;;;9.72;83.39;102285.53;1032559;28;20065;-76
2021/05/31 02:04:42;;;;;;;17.10;13.30;;;;;;;9.74;83.72;102282.19;1032412;28;20511;-76
2021/05/31 02:05:15;;;;;;;14.85;12.20;;;;;;;9.77;83.58;102284.91;1033612;28;20054;-76
2021/05/31 02:05:46;;;;;;;17.92;13.32;;;;;;;9.78;84.19;102289.25;1032505;28;20442;-76
2021/05/31 02:06:18;;;;;;;18.30;14.20;;;;;;;9.82;83.54;102285.09;1028503;28;20547;-76
2021/05/31 02:06:51;;;;;;;17.25;12.88;;;;;;;9.79;84.19;102284.97;1028363;28;20050;-76
2021/05/31 02:07:23;;;;;;;16.15;12.52;;;;;;;9.72;84.28;102285.53;1029142;28;20055;-77
2021/05/31 02:07:55;;;;;;;18.63;13.10;;;;;;;9.72;84.43;102291.59;1028382;28;20061;-76
2021/05/31 02:08:26;;;;;;;18.52;12.23;;;;;;;9.75;84.00;102288.22;1029315;28;20054;-76
2021/05/31 02:08:58;;;;;;;19.95;12.93;;;;;;;9.76;84.25;102282.25;1028681;28;20059;-76
2021/05/31 02:09:29;;;;;;;16.95;14.15;;;;;;;9.76;83.96;102283.16;1024875;28;20055;-76
2021/05/31 02:10:01;;;;;;;20.25;13.02;;;;;;;9.69;84.89;102282.81;1028625;28;20055;-76
2021/05/31 02:10:32;;;;;;;17.15;14.05;;;;;;;9.69;85.12;102282.81;1028433;28;20047;-76
2021/05/31 02:11:20;;;;;;;23.95;13.82;;;;;;;9.73;84.28;102284.72;1028833;28;20066;-77
2021/05/31 02:12:04;;;;;;;17.13;13.13;;;;;;;9.76;84.12;102287.44;1028413;28;20062;-76
2021/05/31 02:12:56;;;;;;;18.67;12.82;;;;;;;9.78;84.20;102286.66;1028493;28;20051;-76
2021/05/31 02:13:32;;;;;;;18.33;12.82;;;;;;;9.79;83.66;102287.53;1025109;28;20047;-76
2021/05/31 02:14:13;;;;;;;16.83;12.15;;;;;;;9.75;83.49;102288.22;1028583;28;20434;-76
2021/05/31 02:14:58;;;;;;;16.98;12.50;;;;;;;9.71;84.41;102279.50;1028615;28;20395;-76
2021/05/31 02:15:42;;;;;;;18.10;13.05;;;;;;;9.62;84.56;102281.66;1028584;28;20057;-76
2021/05/31 02:16:25;;;;;;;27.88;14.52;;;;;;;9.64;85.04;102289.47;1028405;28;20507;-77
2021/05/31 02:17:03;;;;;;;15.00;12.85;;;;;;;9.69;84.31;102290.56;1032127;28;20050;-77
2021/05/31 02:17:41;;;;;;;17.63;13.60;;;;;;;9.71;84.24;102291.53;1029439;28;20063;-76
2021/05/31 02:18:17;;;;;;;18.17;13.15;;;;;;;9.69;84.42;102290.56;1032296;28;20054;-76
2021/05/31 02:18:50;;;;;;;16.42;12.55;;;;;;;9.71;84.21;102284.66;1032558;28;20058;-76
2021/05/31 02:19:23;;;;;;;18.48;13.85;;;;;;;9.71;84.22;102288.94;1032589;28;20482;-76
2021/05/31 02:20:02;;;;;;;21.05;13.20;;;;;;;9.71;84.34;102292.41;1032592;28;20406;-76
2021/05/31 02:20:36;;;;;;;19.73;14.05;;;;;;;9.71;84.05;102287.25;1032746;28;20046;-76
2021/05/31 02:21:09;;;;;;;20.65;14.25;;;;;;;9.71;84.49;102282.06;1032516;28;20517;-76
2021/05/31 02:21:41;;;;;;;26.67;14.25;;;;;;;9.68;83.97;102284.50;1032292;28;20284;-76
2021/05/31 02:22:14;;;;;;;20.65;14.23;;;;;;;9.66;84.01;102288.75;1032518;28;20047;-76
2021/05/31 02:22:48;;;;;;;19.95;13.13;;;;;;;9.66;84.18;102282.69;1029040;28;20436;-76
2021/05/31 02:23:21;;;;;;;17.48;14.68;;;;;;;9.64;84.42;102285.19;1028341;28;20399;-76
2021/05/31 02:23:53;;;;;;;22.25;15.00;;;;;;;9.66;84.58;102291.31;1028290;28;20062;-76
2021/05/31 02:24:25;;;;;;;23.80;14.20;;;;;;;9.59;84.74;102289.31;1031832;28;20136;-76
2021/05/31 02:24:57;;;;;;;16.85;14.13;;;;;;;9.63;84.15;102290.31;1032894;28;20047;-76
2021/05/31 02:25:30;;;;;;;19.50;14.43;;;;;;;9.62;84.30;102284.25;1032723;28;20046;-76
2021/05/31 02:26:03;;;;;;;22.60;14.48;;;;;;;9.59;84.74;102286.72;1029010;28;20407;-76
2021/05/31 02:26:36;;;;;;;13.68;12.23;;;;;;;9.59;84.79;102286.72;1028468;28;20597;-77
2021/05/31 02:27:09;;;;;;;19.20;14.43;;;;;;;9.55;84.47;102284.81;1024523;29;20051;-76
2021/05/31 02:27:46;;;;;;;22.27;14.80;;;;;;;9.51;84.73;102285.50;1025408;28;20507;-76
2021/05/31 02:28:18;;;;;;;18.95;14.88;;;;;;;9.51;84.81;102293.25;1024462;29;20062;-76
2021/05/31 02:28:50;;;;;;;22.67;13.13;;;;;;;9.51;84.81;102285.50;1025838;28;20399;-76
2021/05/31 02:29:21;;;;;;;18.92;14.93;;;;;;;9.55;85.00;102280.53;1028403;28;20062;-76
2021/05/31 02:29:53;;;;;;;14.68;12.98;;;;;;;9.51;84.87;102286.38;1028398;28;20055;-76
2021/05/31 02:30:26;;;;;;;19.38;13.30;;;;;;;9.46;85.25;102289.59;1028265;28;20058;-76
2021/05/31 02:31:01;;;;;;;18.90;13.38;;;;;;;9.44;84.93;102286.06;1028529;28;20050;-76
2021/05/31 02:31:33;;;;;;;21.58;14.98;;;;;;;9.49;84.65;102287.16;1028427;28;20062;-76
2021/05/31 02:32:07;;;;;;;23.33;14.60;;;;;;;9.42;84.93;102285.13;1024413;28;20047;-76
2021/05/31 02:33:09;;;;;;;17.45;13.20;;;;;;;9.42;85.26;102280.84;1029574;28;20074;-76
2021/05/31 02:33:40;;;;;;;16.13;13.23;;;;;;;9.41;84.81;102283.34;1027724;28;20514;-76
2021/05/31 02:34:12;;;;;;;16.58;13.75;;;;;;;9.32;85.88;102286.44;1032742;28;20402;-76
2021/05/31 02:34:43;;;;;;;19.92;15.48;;;;;;;9.35;85.85;102290.81;1032738;28;20062;-76
2021/05/31 02:35:16;;;;;;;16.10;14.23;;;;;;;9.31;85.65;102286.38;1032395;28;20054;-76
2021/05/31 02:35:47;;;;;;;21.13;14.52;;;;;;;9.32;86.13;102293.28;1032290;28;20060;-76
2021/05/31 02:36:19;;;;;;;21.40;15.73;;;;;;;9.39;85.51;102283.28;1032442;28;20057;-77
2021/05/31 02:36:52;;;;;;;20.48;14.25;;;;;;;9.38;85.28;102285.81;1032539;28;20046;-76
2021/05/31 02:37:35;;;;;;;15.23;13.60;;;;;;;9.33;85.67;102287.31;1028958;28;20121;-76
2021/05/31 02:38:07;;;;;;;20.33;14.13;;;;;;;9.33;85.33;102287.31;1028379;28;20051;-76
2021/05/31 02:38:38;;;;;;;19.52;15.90;;;;;;;9.34;85.86;102279.63;1024311;28;20051;-76